Time;durP1;ratioP1;P1;durP2;ratioP2;P2;SDS_P1;SDS_P2;PMS_P1;PMS_P2;Temp;Humidity;BMP_temperature;BMP_pressure;BME280_temperature;BME280_humidity;BME280_pressure;Samples;Min_cycle;Max_cycle;Signal;HPM_P1;HPM_P2
2023/09/27 00:01:21;;;;;;;19.75;15.80;;;;;;;;;;4686147;30;20538;-88
2023/09/27 00:03:47;;;;;;;20.98;16.90;;;;;;;;;;4700671;30;20049;-86
2023/09/27 00:06:14;;;;;;;25.35;16.20;;;;;;;;;;4700572;30;20097;-87
2023/09/27 00:08:41;;;;;;;21.58;15.32;;;;;;;;;;4700597;30;20060;-86
2023/09/27 00:11:07;;;;;;;21.77;16.38;;;;;;;;;;4700390;30;20064;-87
2023/09/27 00:13:33;;;;;;;23.02;17.05;;;;;;;;;;4686499;30;20141;-86
2023/09/27 00:15:59;;;;;;;24.85;17.45;;;;;;;;;;4700513;30;20061;-86
2023/09/27 00:18:25;;;;;;;21.63;16.95;;;;;;;;;;4688528;30;20415;-86
2023/09/27 00:20:52;;;;;;;23.30;16.45;;;;;;;;;;4704039;30;20389;-86
2023/09/27 00:23:18;;;;;;;22.27;15.95;;;;;;;;;;4704036;30;20049;-85
2023/09/27 00:25:44;;;;;;;19.38;16.00;;;;;;;;;;4689680;30;20080;-86
2023/09/27 00:28:10;;;;;;;19.20;16.05;;;;;;;;;;4703879;30;20139;-87
2023/09/27 00:30:36;;;;;;;19.77;16.52;;;;;;;;;;4703855;30;20060;-86
2023/09/27 00:33:02;;;;;;;19.33;16.50;;;;;;;;;;4703718;30;20053;-86
2023/09/27 00:35:29;;;;;;;21.67;15.52;;;;;;;;;;4703599;30;20503;-86
2023/09/27 00:37:55;;;;;;;20.08;16.60;;;;;;;;;;4703648;30;20057;-86
2023/09/27 00:40:23;;;;;;;27.27;17.38;;;;;;;;;;4703523;30;20056;-86
2023/09/27 00:42:49;;;;;;;24.00;17.10;;;;;;;;;;4703641;30;20053;-86
2023/09/27 00:45:17;;;;;;;20.33;15.63;;;15.20;1.00;;;;;;4703352;30;20081;-86
2023/09/27 00:47:44;;;;;;;18.70;16.73;;;;;;;;;;4688781;30;20103;-87
2023/09/27 00:50:10;;;;;;;23.63;17.73;;;;;;;;;;4703471;30;20053;-85
2023/09/27 00:52:38;;;;;;;20.90;16.67;;;;;;;;;;4703250;30;20053;-86
2023/09/27 00:55:05;;;;;;;22.13;16.55;;;;;;;;;;4702976;30;20064;-85
2023/09/27 00:57:31;;;;;;;22.73;15.82;;;;;;;;;;4703727;30;20075;-86
2023/09/27 00:59:57;;;;;;;23.92;17.15;;;;;;;;;;4703076;30;20049;-86
2023/09/27 01:02:23;;;;;;;19.38;16.52;;;;;;;;;;4703378;30;20053;-85
2023/09/27 01:04:50;;;;;;;24.88;16.55;;;;;;;;;;4703435;30;20056;-85
2023/09/27 01:07:16;;;;;;;19.33;14.95;;;;;;;;;;4703225;30;20092;-85
2023/09/27 01:09:42;;;;;;;18.88;15.43;;;;;;;;;;4703535;30;20045;-86
2023/09/27 01:12:08;;;;;;;20.63;15.93;;;;;;;;;;4688784;30;20129;-86
2023/09/27 01:14:34;;;;;;;20.65;16.23;;;;;;;;;;4688935;30;20049;-86
2023/09/27 01:17:10;;;;;;;18.13;15.60;;;;;;;;;;4708695;30;20096;-83
2023/09/27 01:19:38;;;;;;;20.65;16.13;;;15.10;1.00;;;;;;4709993;30;20053;-83
2023/09/27 01:22:04;;;;;;;21.00;16.17;;;;;;;;;;4695826;30;20120;-84
2023/09/27 01:24:30;;;;;;;20.48;17.13;;;;;;;;;;4708829;30;20095;-84
2023/09/27 01:26:58;;;;;;;19.77;14.52;;;;;;;;;;4708084;30;20060;-83
2023/09/27 01:29:24;;;;;;;21.13;15.68;;;;;;;;;;4705090;30;20085;-83
2023/09/27 01:31:50;;;;;;;22.08;16.77;;;;;;;;;;4689561;30;20430;-90
2023/09/27 01:34:16;;;;;;;18.20;15.73;;;;;;;;;;4703274;30;20065;-90
2023/09/27 01:36:42;;;;;;;17.95;15.85;;;;;;;;;;4703242;30;20055;-83
2023/09/27 01:39:08;;;;;;;21.85;15.85;;;;;;;;;;4703344;30;20135;-90
2023/09/27 01:41:34;;;;;;;19.48;16.10;;;;;;;;;;4717676;30;20595;-86
2023/09/27 01:44:01;;;;;;;23.63;16.98;;;;;;;;;;4703045;30;20057;-94
2023/09/27 01:46:27;;;;;;;16.90;15.10;;;;;;;;;;4703560;30;20095;-90
2023/09/27 01:48:53;;;;;;;24.30;15.80;;;;;;;;;;4690298;30;20107;-93
2023/09/27 01:51:19;;;;;;;19.58;16.38;;;;;;;;;;4689428;30;20052;-89
2023/09/27 01:53:45;;;;;;;20.73;15.77;;;;;;;;;;4702780;30;20119;-86
2023/09/27 01:56:11;;;;;;;21.35;15.88;;;;;;;;;;4702295;30;20100;-86
2023/09/27 01:58:37;;;;;;;18.00;15.80;;;;;;;;;;4702430;30;20068;-86
2023/09/27 02:01:03;;;;;;;18.90;15.82;;;;;;;;;;4702506;30;20049;-86
2023/09/27 02:03:29;;;;;;;21.00;15.98;;;;;;;;;;4702177;30;20496;-86
2023/09/27 02:05:57;;;;;;;21.40;15.98;;;15.10;1.00;;;;;;4701877;30;20136;-86
2023/09/27 02:08:26;;;;;;;19.38;16.35;;;;;;;;;;4701944;30;20057;-91
2023/09/27 02:10:52;;;;;;;19.23;15.05;;;;;;;;;;4702367;30;20053;-88
2023/09/27 02:13:18;;;;;;;19.35;16.85;;;;;;;;;;4702475;30;20049;-88
2023/09/27 02:15:44;;;;;;;19.90;15.13;;;;;;;;;;4687741;30;20065;-87
2023/09/27 02:18:11;;;;;;;20.38;17.00;;;;;;;;;;4701936;30;20095;-86
2023/09/27 02:20:37;;;;;;;18.73;15.48;;;;;;;;;;4702244;30;20122;-88
2023/09/27 02:23:03;;;;;;;20.13;16.30;;;;;;;;;;4701795;30;20045;-86
2023/09/27 02:25:30;;;;;;;19.52;16.40;;;;;;;;;;4701569;30;20478;-87
2023/09/27 02:27:56;;;;;;;20.10;17.50;;;;;;;;;;4701798;30;20053;-86
2023/09/27 02:30:22;;;;;;;23.20;16.42;;;;;;;;;;4702202;30;20126;-86
2023/09/27 02:32:48;;;;;;;19.95;17.73;;;;;;;;;;4701799;30;20119;-87
2023/09/27 02:35:14;;;;;;;21.42;17.50;;;;;;;;;;4687104;30;20523;-87
2023/09/27 02:37:41;;;;;;;18.08;16.17;;;;;;;;;;4687099;30;20049;-85
2023/09/27 02:40:14;;;;;;;21.58;16.10;;;;;;;;;;4701497;30;20053;-87
2023/09/27 02:42:41;;;;;;;20.02;16.20;;;;;;;;;;4701491;30;20138;-87
2023/09/27 02:45:08;;;;;;;22.48;17.10;;;;;;;;;;4701359;30;20146;-86
2023/09/27 02:47:34;;;;;;;23.10;17.15;;;;;;;;;;4701376;30;20209;-86
2023/09/27 02:50:00;;;;;;;21.58;16.80;;;;;;;;;;4701270;30;20110;-86
2023/09/27 02:52:26;;;;;;;20.55;17.27;;;;;;;;;;4701433;30;20061;-85
2023/09/27 02:54:52;;;;;;;23.27;16.95;;;;;;;;;;4701433;30;20400;-87
2023/09/27 02:57:19;;;;;;;21.73;17.55;;;;;;;;;;4701229;30;20070;-86
2023/09/27 02:59:45;;;;;;;23.02;17.67;;;;;;;;;;4701229;30;20053;-86
2023/09/27 03:02:13;;;;;;;22.65;17.55;;;;;;;;;;4701528;30;20164;-86
2023/09/27 03:04:40;;;;;;;22.08;18.15;;;;;;;;;;4701063;30;20084;-86
2023/09/27 03:07:08;;;;;;;22.05;16.52;;;;;;;;;;4700993;30;20126;-87
2023/09/27 03:09:36;;;;;;;24.05;18.08;;;;;;;;;;4686933;30;20071;-86
2023/09/27 03:12:03;;;;;;;24.13;19.58;;;;;;;;;;4701350;30;20432;-84
2023/09/27 03:14:29;;;;;;;23.50;18.20;;;;;;;;;;4701041;30;20049;-84
2023/09/27 03:16:55;;;;;;;19.25;17.10;;;;;;;;;;4702073;30;20641;-85
2023/09/27 03:19:22;;;;;;;27.98;17.30;;;;;;;;;;4701759;30;20049;-84
2023/09/27 03:21:48;;;;;;;24.20;18.55;;;;;;;;;;4701257;30;20060;-87
2023/09/27 03:24:14;;;;;;;20.70;17.25;;;;;;;;;;4701054;30;20049;-84
2023/09/27 03:26:40;;;;;;;22.20;18.60;;;;;;;;;;4686563;30;20053;-84
2023/09/27 03:29:06;;;;;;;24.70;18.50;;;;;;;;;;4686965;30;20070;-84
2023/09/27 03:31:32;;;;;;;23.02;18.35;;;;;;;;;;4701253;30;20055;-84
2023/09/27 03:33:58;;;;;;;22.83;18.15;;;;;;;;;;4701450;30;20049;-85
2023/09/27 03:36:25;;;;;;;22.30;18.13;;;;;;;;;;4701291;30;20061;-85
2023/09/27 03:38:51;;;;;;;22.05;17.67;;;;;;;;;;4700843;30;20056;-85
2023/09/27 03:41:17;;;;;;;20.73;17.88;;;;;;;;;;4701286;30;20057;-88
2023/09/27 03:43:43;;;;;;;23.83;17.33;;;;;;;;;;4700911;30;20049;-83
2023/09/27 03:46:09;;;;;;;21.02;17.88;;;;;;;;;;4700938;30;20111;-84
2023/09/27 03:48:35;;;;;;;25.27;19.40;;;;;;;;;;4700860;30;20070;-83
2023/09/27 03:51:02;;;;;;;26.27;18.77;;;;;;;;;;4700862;30;20049;-86
2023/09/27 03:53:28;;;;;;;22.45;18.48;;;;;;;;;;4691141;30;20078;-83
2023/09/27 03:55:54;;;;;;;24.10;19.42;;;;;;;;;;4692223;30;20424;-83
2023/09/27 03:58:20;;;;;;;24.30;19.42;;;;;;;;;;4706615;30;20143;-87
2023/09/27 04:00:47;;;;;;;23.00;18.27;;;;;;;;;;4706184;30;20430;-86
2023/09/27 04:03:13;;;;;;;28.77;17.77;;;;;;;;;;4706258;30;20530;-87
2023/09/27 04:05:39;;;;;;;22.42;18.27;;;;;;;;;;4691895;30;20106;-86
2023/09/27 04:08:06;;;;;;;25.15;18.20;;;;;;;;;;4706058;30;20072;-87
2023/09/27 04:10:33;;;;;;;24.73;18.95;;;;;;;;;;4706457;30;20067;-86
2023/09/27 04:13:00;;;;;;;23.95;19.08;;;;;;;;;;4706298;30;20049;-87
2023/09/27 04:15:26;;;;;;;22.52;19.42;;;;;;;;;;4706406;30;20056;-87
2023/09/27 04:17:52;;;;;;;25.98;20.48;;;;;;;;;;4692110;30;20064;-88
2023/09/27 04:20:18;;;;;;;26.23;19.85;;;;;;;;;;4706442;30;20056;-87
2023/09/27 04:22:47;;;;;;;27.77;19.20;;;;;;;;;;4691728;30;20689;-87
2023/09/27 04:25:14;;;;;;;26.98;20.60;;;;;;;;;;4706212;30;20076;-86
2023/09/27 04:27:40;;;;;;;25.10;19.23;;;;;;;;;;4706048;30;20053;-87
2023/09/27 04:30:13;;;;;;;24.30;19.65;;;;;;;;;;4706135;30;20053;-86
2023/09/27 04:32:43;;;;;;;21.33;18.55;;;14.20;1.00;;;;;;4706348;30;20143;-86
2023/09/27 04:35:10;;;;;;;23.38;18.73;;;;;;;;;;4691554;30;20424;-86
2023/09/27 04:37:36;;;;;;;25.13;19.25;;;;;;;;;;4706246;30;20049;-87
2023/09/27 04:40:09;;;;;;;21.67;18.23;;;;;;;;;;4706232;30;20150;-86
2023/09/27 04:42:35;;;;;;;25.52;18.13;;;;;;;;;;4706638;30;20065;-86
2023/09/27 04:45:01;;;;;;;28.80;21.92;;;;;;;;;;4706566;30;20053;-87
2023/09/27 04:47:27;;;;;;;27.55;19.85;;;;;;;;;;4706345;30;20135;-86
2023/09/27 04:49:54;;;;;;;25.38;20.92;;;;;;;;;;4691846;30;20049;-87
2023/09/27 04:52:20;;;;;;;26.27;20.55;;;;;;;;;;4692081;30;20507;-86
2023/09/27 04:54:47;;;;;;;25.20;20.63;;;;;;;;;;4705994;30;20107;-90
2023/09/27 04:57:14;;;;;;;28.17;20.27;;;;;;;;;;4706178;30;20061;-87
2023/09/27 04:59:40;;;;;;;26.60;20.45;;;;;;;;;;4692148;30;20410;-85
2023/09/27 05:02:06;;;;;;;26.63;18.60;;;;;;;;;;4706350;30;20069;-87
2023/09/27 05:04:32;;;;;;;26.55;20.40;;;;;;;;;;4703841;30;20053;-88
2023/09/27 05:06:58;;;;;;;25.02;19.73;;;;;;;;;;4703356;30;20148;-88
2023/09/27 05:09:25;;;;;;;25.27;20.02;;;;;;;;;;4703729;30;20115;-89
2023/09/27 05:11:51;;;;;;;25.20;20.52;;;;;;;;;;4689461;30;20056;-89
2023/09/27 05:14:17;;;;;;;25.98;20.88;;;;;;;;;;4703904;30;20136;-92
2023/09/27 05:16:43;;;;;;;28.20;21.10;;;;;;;;;;4704006;30;20060;-84
2023/09/27 05:19:09;;;;;;;27.58;21.75;;;;;;;;;;4703851;30;20053;-87
2023/09/27 05:21:35;;;;;;;26.70;20.48;;;;;;;;;;4704318;30;20106;-89
2023/09/27 05:24:01;;;;;;;25.83;20.50;;;;;;;;;;4689334;30;20053;-86
2023/09/27 05:26:27;;;;;;;27.33;21.83;;;;;;;;;;4689336;30;20064;-86
2023/09/27 05:28:53;;;;;;;26.25;21.15;;;;;;;;;;4703498;30;20139;-82
2023/09/27 05:31:19;;;;;;;24.58;19.88;;;;;;;;;;4704181;30;20057;-91
2023/09/27 05:33:46;;;;;;;25.27;21.30;;;;;;;;;;4703365;30;20049;-85
2023/09/27 05:36:12;;;;;;;30.48;23.13;;;;;;;;;;4703315;30;20060;-88
2023/09/27 05:38:38;;;;;;;27.35;21.05;;;;;;;;;;4703446;30;20052;-85
2023/09/27 05:41:04;;;;;;;27.55;21.90;;;;;;;;;;4703011;30;20061;-85
2023/09/27 05:43:30;;;;;;;28.50;21.83;;;;;;;;;;4703120;30;20530;-86
2023/09/27 05:45:57;;;;;;;23.88;19.80;;;;;;;;;;4688456;30;20500;-84
2023/09/27 05:48:24;;;;;;;28.67;22.85;;;;;;;;;;4703014;30;20419;-83
2023/09/27 05:50:50;;;;;;;25.83;21.27;;;;;;;;;;4703109;30;20060;-84
2023/09/27 05:53:17;;;;;;;24.38;20.00;;;;;;;;;;4703002;30;20462;-85
2023/09/27 05:55:44;;;;;;;29.42;21.50;;;13.60;1.00;;;;;;4703233;30;20057;-85
2023/09/27 05:58:10;;;;;;;29.40;20.10;;;;;;;;;;4688495;30;20088;-85
2023/09/27 06:00:46;;;;;;;25.83;20.00;;;;;;;;;;4688422;30;20077;-85
2023/09/27 06:03:12;;;;;;;25.42;20.20;;;;;;;;;;4702900;30;20057;-83
2023/09/27 06:05:39;;;;;;;25.17;19.23;;;13.50;1.00;;;;;;4703464;30;20071;-87
2023/09/27 06:08:05;;;;;;;25.73;19.60;;;;;;;;;;4703418;30;20420;-87
2023/09/27 06:10:32;;;;;;;22.42;18.50;;;;;;;;;;4688848;30;20049;-93
2023/09/27 06:12:58;;;;;;;27.30;19.20;;;;;;;;;;4703314;30;20499;-85
2023/09/27 06:15:24;;;;;;;28.33;19.15;;;;;;;;;;4704079;30;20060;-88
2023/09/27 06:17:50;;;;;;;23.35;19.80;;;;;;;;;;4688833;30;20071;-82
2023/09/27 06:20:22;;;;;;;24.80;19.55;;;;;;;;;;4688639;30;20045;-87
2023/09/27 06:22:50;;;;;;;24.20;20.50;;;13.50;1.00;;;;;;4703546;30;20131;-83
2023/09/27 06:25:20;;;;;;;24.50;19.83;;;13.40;1.00;;;;;;4688616;30;20132;-84
2023/09/27 06:27:47;;;;;;;31.88;20.52;;;;;;;;;;4703062;30;20049;-84
2023/09/27 06:30:14;;;;;;;29.90;20.17;;;;;;;;;;4720031;30;20040;-90
2023/09/27 06:32:40;;;;;;;28.45;21.48;;;;;;;;;;4722567;30;20493;-91
2023/09/27 06:35:12;;;;;;;28.30;21.73;;;;;;;;;;4722723;30;20094;-91
2023/09/27 06:37:43;;;;;;;24.67;20.27;;;;;;;;;;4723192;30;20084;-85
2023/09/27 06:40:22;;;;;;;26.85;20.80;;;;;;;;;;4723235;30;20056;-82
2023/09/27 06:42:48;;;;;;;33.15;21.38;;;;;;;;;;4722357;30;20059;-90
2023/09/27 06:45:15;;;;;;;26.05;21.38;;;;;;;;;;4707747;30;20087;-86
2023/09/27 06:47:42;;;;;;;32.75;22.00;;;13.80;1.00;;;;;;4721592;30;20052;-89
2023/09/27 06:50:08;;;;;;;27.95;21.27;;;;;;;;;;4722286;30;20104;-88
2023/09/27 06:52:37;;;;;;;25.83;22.38;;;;;;;;;;4736826;30;20063;-89
2023/09/27 06:55:04;;;;;;;30.15;23.92;;;;;;;;;;4736589;30;20048;-87
2023/09/27 06:57:30;;;;;;;32.03;22.60;;;;;;;;;;4721710;30;20052;-87
2023/09/27 06:59:56;;;;;;;30.85;23.70;;;;;;;;;;4708041;30;20040;-88
2023/09/27 07:02:22;;;;;;;28.25;23.52;;;;;;;;;;4718447;30;20069;-88
2023/09/27 07:04:48;;;;;;;35.53;23.02;;;;;;;;;;4718212;30;20135;-86
2023/09/27 07:07:14;;;;;;;25.73;21.88;;;;;;;;;;4703208;30;20065;-87
2023/09/27 07:09:40;;;;;;;28.25;22.88;;;;;;;;;;4718504;30;20061;-87
2023/09/27 07:12:07;;;;;;;31.48;24.55;;;;;;;;;;4689807;30;20063;-86
2023/09/27 07:14:35;;;;;;;34.28;23.90;;;;;;;;;;4718256;30;20044;-89
2023/09/27 07:17:02;;;;;;;34.10;24.50;;;;;;;;;;4704052;30;20059;-90
2023/09/27 07:19:31;;;;;;;28.08;23.42;;;;;;;;;;4703407;30;20060;-88
2023/09/27 07:21:57;;;;;;;32.25;23.40;;;;;;;;;;4703337;30;20079;-87
2023/09/27 07:24:23;;;;;;;36.13;25.52;;;;;;;;;;4688213;30;20495;-89
2023/09/27 07:26:52;;;;;;;31.52;24.85;;;;;;;;;;4702282;30;20056;-90
2023/09/27 07:29:18;;;;;;;33.53;25.10;;;;;;;;;;4720331;30;20048;-89
2023/09/27 07:31:44;;;;;;;30.48;24.55;;;;;;;;;;4720673;30;20431;-90
2023/09/27 07:34:10;;;;;;;34.50;25.15;;;;;;;;;;4720092;30;20083;-89
2023/09/27 07:36:36;;;;;;;32.78;24.50;;;;;;;;;;4720163;30;20121;-89
2023/09/27 07:39:05;;;;;;;41.60;25.15;;;;;;;;;;4720187;30;20472;-89
2023/09/27 07:41:31;;;;;;;29.58;23.60;;;;;;;;;;4705623;30;20095;-89
2023/09/27 07:43:58;;;;;;;31.20;24.92;;;;;;;;;;4705415;30;20052;-89
2023/09/27 07:46:24;;;;;;;31.55;25.13;;;;;;;;;;4705465;30;20457;-88
2023/09/27 07:48:51;;;;;;;30.83;23.45;;;;;;;;;;4734151;30;20159;-87
2023/09/27 07:51:18;;;;;;;32.20;25.20;;;;;;;;;;4734228;30;20087;-89
2023/09/27 07:53:46;;;;;;;29.73;24.10;;;;;;;;;;4720035;30;20051;-88
2023/09/27 07:56:20;;;;;;;29.77;23.50;;;;;;;;;;4719156;30;20052;-88
2023/09/27 07:58:49;;;;;;;32.67;24.38;;;15.60;6.50;;;;;;4719785;30;20048;-87
2023/09/27 08:01:20;;;;;;;29.67;24.35;;;;;;;;;;4698570;30;20044;-88
2023/09/27 08:03:48;;;;;;;29.42;23.58;;;15.50;3.10;;;;;;4716325;30;20044;-89
2023/09/27 08:06:16;;;;;;;29.50;23.50;;;;;;;;;;4702515;30;20044;-87
2023/09/27 08:08:42;;;;;;;33.60;24.45;;;;;;;;;;4716431;30;20060;-88
2023/09/27 08:11:11;;;;;;;33.00;23.33;;;;;;;;;;4695156;30;20095;-88
2023/09/27 08:13:38;;;;;;;30.27;23.65;;;;;;;;;;4691475;30;20083;-88
2023/09/27 08:16:06;;;;;;;31.30;24.85;;;;;;;;;;4702490;30;20049;-88
2023/09/27 08:18:33;;;;;;;31.80;23.67;;;;;;;;;;4703440;30;20515;-88
2023/09/27 08:20:59;;;;;;;30.83;24.15;;;;;;;;;;4717490;30;20188;-87
2023/09/27 08:23:26;;;;;;;33.20;24.38;;;;;;;;;;4702093;30;20057;-88
2023/09/27 08:25:55;;;;;;;28.90;22.25;;;;;;;;;;4701518;30;20056;-87
2023/09/27 08:28:22;;;;;;;28.25;23.00;;;;;;;;;;4701716;30;20465;-87
2023/09/27 08:30:49;;;;;;;32.13;24.38;;;;;;;;;;4718464;30;20530;-87
2023/09/27 08:33:15;;;;;;;27.90;22.83;;;;;;;;;;4733728;30;20052;-87
2023/09/27 08:35:41;;;;;;;31.05;23.58;;;;;;;;;;4704573;30;20052;-88
2023/09/27 08:38:10;;;;;;;35.70;22.63;;;;;;;;;;4718279;30;20076;-89
2023/09/27 08:40:37;;;;;;;30.52;22.13;;;;;;;;;;4737106;30;20052;-88
2023/09/27 08:43:04;;;;;;;35.65;23.60;;;;;;;;;;4708245;30;20494;-89
2023/09/27 08:45:33;;;;;;;30.50;24.00;;;;;;;;;;4722385;30;20044;-90
2023/09/27 08:47:59;;;;;;;26.17;20.92;;;;;;;;;;4722052;30;20457;-89
2023/09/27 08:50:27;;;;;;;29.52;22.90;;;17.20;11.10;;;;;;4722146;30;20087;-88
2023/09/27 08:52:54;;;;;;;25.52;21.52;;;;;;;;;;4736932;30;20495;-90
2023/09/27 08:55:20;;;;;;;30.80;23.23;;;;;;;;;;4736705;30;20084;-90
2023/09/27 08:57:48;;;;;;;34.60;23.85;;;17.50;11.10;;;;;;4736934;30;20048;-88
2023/09/27 09:00:21;;;;;;;31.23;21.40;;;17.50;3.80;;;;;;4723101;30;20498;-86
2023/09/27 09:02:57;;;;;;;29.60;20.20;;;17.70;11.60;;;;;;4722690;30;20083;-86
2023/09/27 09:05:27;;;;;;;36.03;22.80;;;17.70;11.60;;;;;;4708731;30;20087;-85
2023/09/27 09:07:55;;;;;;;28.63;20.38;;;;;;;;;;4721661;30;20068;-84
2023/09/27 09:10:24;;;;;;;26.83;20.23;;;;;;;;;;4716861;30;20044;-85
2023/09/27 09:12:52;;;;;;;25.30;18.00;;;;;;;;;;4726786;30;20047;-86
2023/09/27 09:15:35;;;;;;;26.27;18.83;;;18.20;4.00;;;;;;4715226;30;20275;-87
2023/09/27 09:18:08;;;;;;;25.45;17.80;;;;;;;;;;4727633;30;20075;-87
2023/09/27 09:20:49;;;;;;;24.70;18.60;;;;;;;;;;4732444;30;20056;-86
2023/09/27 09:23:49;;;;;;;25.17;17.70;;;18.50;13.00;;;;;;4721685;30;20059;-87
2023/09/27 09:26:28;;;;;;;23.73;15.50;;;18.50;11.10;;;;;;4679126;30;20056;-87
2023/09/27 09:29:00;;;;;;;21.10;16.95;;;18.60;8.50;;;;;;4702529;30;20047;-87
2023/09/27 09:31:27;;;;;;;21.70;16.25;;;18.60;9.50;;;;;;4729864;30;20048;-85
2023/09/27 09:34:12;;;;;;;26.30;15.95;;;;;;;;;;4698167;30;20051;-86
2023/09/27 09:36:38;;;;;;;21.10;15.27;;;;;;;;;;4721706;30;20055;-87
2023/09/27 09:39:14;;;;;;;23.25;15.70;;;18.60;1.00;;;;;;4704479;30;20048;-86
2023/09/27 09:42:08;;;;;;;20.20;14.25;;;18.80;9.60;;;;;;4719184;30;20463;-87
2023/09/27 09:44:34;;;;;;;;;;;18.90;9.40;;;;;;4688979;30;20055;-85
2023/09/27 09:47:10;;;;;;;22.38;16.00;;;19.00;6.20;;;;;;4689593;30;19930;-87
2023/09/27 09:49:36;;;;;;;19.55;13.88;;;;;;;;;;4703959;30;20087;-87
2023/09/27 09:52:03;;;;;;;19.67;13.88;;;19.20;4.30;;;;;;4716384;30;20056;-86
2023/09/27 09:54:46;;;;;;;20.75;14.40;;;19.40;3.80;;;;;;4691657;30;20531;-87
2023/09/27 09:57:19;;;;;;;24.90;14.07;;;19.20;2.80;;;;;;4707948;30;20060;-88
2023/09/27 10:00:03;;;;;;;20.83;13.80;;;19.40;2.50;;;;;;4709399;30;20416;-88
2023/09/27 10:02:32;;;;;;;26.45;14.85;;;19.20;1.50;;;;;;4709026;30;20521;-86
2023/09/27 10:05:00;;;;;;;22.25;14.60;;;19.20;1.10;;;;;;4693741;30;20124;-87
2023/09/27 10:07:27;;;;;;;19.33;14.55;;;19.40;1.00;;;;;;4692737;30;20597;-88
2023/09/27 10:09:53;;;;;;;20.20;14.52;;;;;;;;;;4693471;30;20068;-89
2023/09/27 10:12:21;;;;;;;23.90;14.00;;;19.60;1.00;;;;;;4680471;30;20067;-89
2023/09/27 10:14:49;;;;;;;13.98;10.75;;;19.60;1.00;;;;;;4679105;30;20052;-89
2023/09/27 10:17:29;;;;;;;18.70;10.93;;;19.50;1.00;;;;;;4693832;30;20045;-87
2023/09/27 10:20:14;;;;;;;18.52;11.82;;;19.60;1.00;;;;;;4692913;30;20045;-86
2023/09/27 10:22:52;;;;;;;13.85;8.75;;;19.70;1.00;;;;;;4693185;30;20060;-88
2023/09/27 10:25:23;;;;;;;16.83;9.45;;;19.40;1.00;;;;;;4707533;30;20061;-86
2023/09/27 10:28:01;;;;;;;9.95;8.13;;;19.90;1.00;;;;;;4707165;30;20074;-85
2023/09/27 10:30:50;;;;;;;10.23;7.35;;;19.70;1.00;;;;;;4708042;30;20056;-85
2023/09/27 10:33:17;;;;;;;11.25;6.78;;;;;;;;;;4693754;30;20056;-88
2023/09/27 10:36:02;;;;;;;10.18;6.32;;;19.70;1.00;;;;;;4692862;30;20064;-87
2023/09/27 10:38:53;;;;;;;13.75;6.85;;;19.80;1.00;;;;;;4698623;30;20845;-88
2023/09/27 10:41:38;;;;;;;10.07;5.95;;;19.70;1.00;;;;;;4700893;30;20523;-87
2023/09/27 10:44:04;;;;;;;14.50;7.47;;;19.50;1.00;;;;;;4706984;30;20064;-87
2023/09/27 10:46:41;;;;;;;8.70;6.93;;;19.90;1.00;;;;;;4679421;30;20068;-86
2023/09/27 10:49:07;;;;;;;13.88;6.57;;;;;;;;;;4706846;30;20067;-87
2023/09/27 10:51:33;;;;;;;13.63;6.88;;;;;;;;;;4678121;30;20053;-87
2023/09/27 10:53:59;;;;;;;7.75;6.45;;;;;;;;;;4692618;30;20145;-87
2023/09/27 10:56:26;;;;;;;12.30;6.43;;;;;;;;;;4720703;30;20044;-88
2023/09/27 10:58:52;;;;;;;12.20;7.03;;;;;;;;;;4706850;30;20110;-87
2023/09/27 11:01:22;;;;;;;17.05;6.28;;;19.80;1.00;;;;;;4705961;30;20802;-87
2023/09/27 11:03:49;;;;;;;8.05;4.80;;;;;;;;;;4707039;30;20049;-87
2023/09/27 11:06:15;;;;;;;9.95;5.80;;;;;;;;;;4692499;30;20056;-87
2023/09/27 11:08:42;;;;;;;7.30;4.60;;;20.00;1.00;;;;;;4690793;30;20530;-86
2023/09/27 11:11:10;;;;;;;10.20;5.38;;;19.80;1.00;;;;;;4691304;30;20077;-87
2023/09/27 11:13:41;;;;;;;14.27;4.63;;;20.00;1.00;;;;;;4707190;30;20672;-86
2023/09/27 11:16:14;;;;;;;10.90;4.78;;;20.10;1.00;;;;;;4692383;30;20048;-86
2023/09/27 11:18:49;;;;;;;8.68;4.45;;;20.00;1.00;;;;;;4706008;30;21374;-88
2023/09/27 11:21:15;;;;;;;7.30;5.38;;;20.00;1.00;;;;;;4706376;30;20053;-88
2023/09/27 11:24:00;;;;;;;16.70;5.35;;;19.90;1.00;;;;;;4692789;30;20061;-88
2023/09/27 11:26:31;;;;;;;7.40;4.60;;;20.20;1.00;;;;;;4707117;30;20327;-89
2023/09/27 11:29:05;;;;;;;8.50;4.88;;;20.00;1.00;;;;;;4692607;30;20408;-89
2023/09/27 11:31:39;;;;;;;8.32;5.68;;;20.50;1.00;;;;;;4706997;30;20410;-88
2023/09/27 11:34:15;;;;;;;9.85;4.65;;;20.50;1.00;;;;;;4692996;30;20048;-89
2023/09/27 11:36:45;;;;;;;9.07;4.70;;;20.10;1.00;;;;;;4706079;30;20507;-88
2023/09/27 11:39:16;;;;;;;9.18;4.43;;;20.20;1.00;;;;;;4706102;30;20871;-88
2023/09/27 11:41:43;;;;;;;9.77;4.43;;;20.20;1.00;;;;;;4690661;30;20064;-88
2023/09/27 11:44:17;;;;;;;11.50;4.50;;;20.40;1.00;;;;;;4693072;30;20056;-88
2023/09/27 11:46:48;;;;;;;6.50;3.92;;;20.50;1.00;;;;;;4692451;30;20061;-88
2023/09/27 11:49:15;;;;;;;9.25;5.32;;;;;;;;;;4693233;30;20676;-87
2023/09/27 11:51:42;;;;;;;14.27;5.00;;;;;;;;;;4700408;30;20060;-87
2023/09/27 11:54:12;;;;;;;7.75;4.25;;;;;;;;;;4707727;30;20523;-87
2023/09/27 11:56:46;;;;;;;12.25;4.50;;;20.40;1.00;;;;;;4723081;30;20049;-89
2023/09/27 11:59:12;;;;;;;7.95;4.75;;;;;;;;;;4693882;30;20064;-88
2023/09/27 12:01:41;;;;;;;6.82;4.82;;;;;;;;;;4693370;30;20057;-88
2023/09/27 12:04:07;;;;;;;6.90;4.15;;;;;;;;;;4708101;30;20926;-89
2023/09/27 12:06:36;;;;;;;9.02;4.07;;;;;;;;;;4710637;30;20061;-88
2023/09/27 12:09:05;;;;;;;12.45;4.65;;;;;;;;;;4698668;30;20056;-89
2023/09/27 12:11:31;;;;;;;7.03;4.47;;;;;;;;;;4701078;30;20516;-91
2023/09/27 12:13:57;;;;;;;9.50;4.15;;;;;;;;;;4709697;30;20045;-90
2023/09/27 12:16:26;;;;;;;8.63;4.88;;;21.00;1.00;;;;;;4727703;30;20048;-91
2023/09/27 12:18:52;;;;;;;9.38;4.35;;;;;;;;;;4712957;30;20056;-89
2023/09/27 12:21:18;;;;;;;9.95;3.85;;;;;;;;;;4724749;30;20068;-91
2023/09/27 12:23:44;;;;;;;7.03;4.43;;;;;;;;;;4713819;30;20053;-90
2023/09/27 12:26:12;;;;;;;6.88;4.15;;;;;;;;;;4713833;30;20084;-90
2023/09/27 12:28:38;;;;;;;5.53;3.97;;;;;;;;;;4727934;30;20526;-92
2023/09/27 12:31:05;;;;;;;5.80;4.00;;;;;;;;;;4728330;30;20392;-87
2023/09/27 12:33:32;;;;;;;6.05;3.85;;;21.60;1.00;;;;;;4698076;30;20060;-90
2023/09/27 12:35:58;;;;;;;10.15;3.47;;;;;;;;;;4714378;30;20141;-89
2023/09/27 12:38:26;;;;;;;7.10;3.97;;;;;;;;;;4684550;30;20055;-87
2023/09/27 12:40:52;;;;;;;4.47;3.70;;;;;;;;;;4697660;30;20037;-90
2023/09/27 12:43:18;;;;;;;6.68;3.72;;;;;;;;;;4696876;30;20061;-86
2023/09/27 12:45:45;;;;;;;8.43;4.47;;;;;;;;;;4698765;30;20873;-86
2023/09/27 12:48:11;;;;;;;6.13;4.25;;;;;;;;;;4697045;30;20060;-91
2023/09/27 12:50:41;;;;;;;10.57;3.92;;;21.80;1.00;;;;;;4694583;30;20048;-88
2023/09/27 12:53:07;;;;;;;6.50;4.20;;;;;;;;;;4695573;30;20059;-86
2023/09/27 12:55:34;;;;;;;7.50;3.65;;;;;;;;;;4726083;30;20391;-91
2023/09/27 12:58:00;;;;;;;4.95;4.07;;;;;;;;;;4724705;30;20129;-86
2023/09/27 13:00:26;;;;;;;6.50;4.93;;;22.60;1.00;;;;;;4698595;30;20053;-84
2023/09/27 13:02:52;;;;;;;5.93;3.83;;;;;;;;;;4686194;30;20056;-92
2023/09/27 13:05:18;;;;;;;7.65;4.43;;;;;;;;;;4699715;30;20067;-91
2023/09/27 13:07:44;;;;;;;4.30;3.85;;;;;;;;;;4686006;30;20526;-92
2023/09/27 13:10:11;;;;;;;6.13;4.18;;;;;;;;;;4714948;30;20084;-89
2023/09/27 13:12:38;;;;;;;5.68;3.58;;;;;;;;;;4687180;30;20088;-90
2023/09/27 13:15:04;;;;;;;10.82;4.47;;;22.30;1.00;;;;;;4727123;30;20434;-87
2023/09/27 13:17:35;;;;;;;15.35;5.03;;;22.00;1.00;;;;;;4692838;30;20507;-90
2023/09/27 13:20:03;;;;;;;7.32;4.25;;;;;;;;;;4696750;30;20601;-93
2023/09/27 13:22:30;;;;;;;7.53;4.40;;;;;;;;;;4711641;30;20126;-93
2023/09/27 13:24:57;;;;;;;5.80;4.18;;;;;;;;;;4715314;30;20052;-91
2023/09/27 13:27:23;;;;;;;5.18;3.75;;;;;;;;;;4712194;30;20119;-91
2023/09/27 13:29:50;;;;;;;8.02;4.25;;;;;;;;;;4710754;30;20057;-89
2023/09/27 13:32:20;;;;;;;5.93;3.70;;;22.50;1.00;;;;;;4699761;30;20468;-92
2023/09/27 13:34:46;;;;;;;7.25;4.15;;;22.30;1.00;;;;;;4709377;30;20080;-90
2023/09/27 13:37:13;;;;;;;5.20;3.13;;;;;;;;;;4695932;30;20112;-87
2023/09/27 13:39:42;;;;;;;5.35;3.13;;;;;;;;;;4710637;30;20526;-85
2023/09/27 13:42:08;;;;;;;7.93;3.63;;;;;;;;;;4695362;30;20056;-84
2023/09/27 13:44:38;;;;;;;6.45;3.47;;;22.70;1.00;;;;;;4712267;30;20048;-88
2023/09/27 13:47:05;;;;;;;6.57;3.97;;;;;;;;;;4697647;30;20059;-90
2023/09/27 13:49:31;;;;;;;6.40;3.70;;;;;;;;;;4695583;30;20096;-84
2023/09/27 13:51:57;;;;;;;4.60;3.90;;;23.00;1.00;;;;;;4694008;30;20064;-88
2023/09/27 13:54:23;;;;;;;4.93;3.50;;;;;;;;;;4726197;30;20075;-86
2023/09/27 13:56:49;;;;;;;4.40;3.30;;;;;;;;;;4694555;30;20067;-87
2023/09/27 13:59:15;;;;;;;5.70;3.25;;;23.00;1.00;;;;;;4693473;30;20466;-84
2023/09/27 14:01:42;;;;;;;8.88;4.70;;;;;;;;;;4708130;30;20102;-85
2023/09/27 14:04:09;;;;;;;5.75;4.38;;;23.10;1.00;;;;;;4725555;30;20084;-85